Time;durP1;ratioP1;P1;durP2;ratioP2;P2;SDS_P1;SDS_P2;PMS_P1;PMS_P2;Temp;Humidity;BMP_temperature;BMP_pressure;BME280_temperature;BME280_humidity;BME280_pressure;Samples;Min_cycle;Max_cycle;Signal;HPM_P1;HPM_P2
2024/02/29 00:01:44;;;;;;;0.90;0.90;;;23.60;1.00;;;;;;2607174;47;20259;-82
2024/02/29 00:04:09;;;;;;;1.10;1.10;;;23.50;1.00;;;;;;2609505;54;20167;-82
2024/02/29 00:06:35;;;;;;;1.30;1.20;;;23.50;1.00;;;;;;2608615;54;20162;-82
2024/02/29 00:09:02;;;;;;;2.13;2.03;;;23.50;1.00;;;;;;2609643;39;20716;-82
2024/02/29 00:11:28;;;;;;;0.90;0.90;;;23.50;1.00;;;;;;2609082;54;21179;-81
2024/02/29 00:13:53;;;;;;;0.90;0.90;;;23.40;1.00;;;;;;2608763;54;20396;-81
2024/02/29 00:16:20;;;;;;;0.90;0.90;;;23.40;1.00;;;;;;2608956;54;20162;-81
2024/02/29 00:18:47;;;;;;;1.10;1.10;;;23.40;1.00;;;;;;2608051;54;20173;-81
2024/02/29 00:21:13;;;;;;;1.00;1.00;;;23.40;1.00;;;;;;2608943;54;20505;-82
2024/02/29 00:23:40;;;;;;;1.10;1.10;;;23.30;1.00;;;;;;2609925;54;20425;-80
2024/02/29 00:26:06;;;;;;;7.00;3.47;;;23.30;1.00;;;;;;2608001;54;21048;-82
2024/02/29 00:28:32;;;;;;;1.00;1.00;;;23.30;1.00;;;;;;2608970;54;20414;-84
2024/02/29 00:30:57;;;;;;;1.00;1.00;;;23.30;1.00;;;;;;2609527;54;20168;-81
2024/02/29 00:33:23;;;;;;;1.03;1.03;;;23.30;1.00;;;;;;2609266;54;20156;-81
2024/02/29 00:35:49;;;;;;;1.10;1.10;;;23.30;1.00;;;;;;2609458;39;21477;-83
2024/02/29 00:38:16;;;;;;;1.00;1.00;;;23.30;1.00;;;;;;2610899;31;20894;-82
2024/02/29 00:40:42;;;;;;;1.00;1.00;;;23.20;1.00;;;;;;2609519;54;20209;-82
2024/02/29 00:43:08;;;;;;;1.00;1.00;;;23.30;1.00;;;;;;2609176;54;21212;-82
2024/02/29 00:45:34;;;;;;;1.20;1.20;;;23.20;1.00;;;;;;2608741;39;20571;-81
2024/02/29 00:48:00;;;;;;;1.17;1.17;;;23.20;1.00;;;;;;2609550;54;20436;-67
2024/02/29 00:50:26;;;;;;;1.60;1.50;;;23.20;1.00;;;;;;2607367;54;20430;-68
2024/02/29 00:52:52;;;;;;;1.10;1.10;;;23.20;1.00;;;;;;2607784;54;20151;-68
2024/02/29 00:55:17;;;;;;;1.00;1.00;;;23.10;1.00;;;;;;2607257;54;20445;-66
2024/02/29 00:57:44;;;;;;;1.60;1.50;;;23.20;1.00;;;;;;2607562;39;21049;-69
2024/02/29 01:00:13;;;;;;;1.00;1.00;;;23.10;1.00;;;;;;2608835;54;20170;-68
2024/02/29 01:02:39;;;;;;;1.00;1.00;;;23.10;1.00;;;;;;2607879;54;20494;-67
2024/02/29 01:05:05;;;;;;;1.10;1.10;;;23.10;1.00;;;;;;2608497;54;20427;-67
2024/02/29 01:07:31;;;;;;;1.10;1.10;;;23.10;1.00;;;;;;2607081;54;20404;-67
2024/02/29 01:09:58;;;;;;;1.17;1.17;;;23.10;1.00;;;;;;2608266;31;20710;-67
2024/02/29 01:12:24;;;;;;;1.40;1.30;;;23.10;1.00;;;;;;2607915;54;20163;-67
2024/02/29 01:14:50;;;;;;;1.10;1.10;;;23.00;1.00;;;;;;2607006;54;20446;-67
2024/02/29 01:17:15;;;;;;;1.20;1.20;;;23.00;1.00;;;;;;2608134;54;21104;-67
2024/02/29 01:19:41;;;;;;;1.10;1.10;;;23.00;1.00;;;;;;2607772;54;20435;-69
2024/02/29 01:22:07;;;;;;;1.10;1.10;;;23.00;1.00;;;;;;2606610;54;20159;-69
2024/02/29 01:24:32;;;;;;;1.10;1.10;;;23.00;1.00;;;;;;2607323;54;20168;-68
2024/02/29 01:26:59;;;;;;;1.93;1.83;;;23.00;1.00;;;;;;2607586;47;20187;-68
2024/02/29 01:29:25;;;;;;;1.10;1.10;;;23.00;1.00;;;;;;2607658;54;20854;-68
2024/02/29 01:31:50;;;;;;;1.13;1.13;;;22.90;1.00;;;;;;2606212;54;20429;-70
2024/02/29 01:34:17;;;;;;;1.10;1.10;;;22.90;1.00;;;;;;2607608;54;20183;-69
2024/02/29 01:36:44;;;;;;;1.20;1.20;;;22.90;1.00;;;;;;2606713;54;20186;-68
2024/02/29 01:39:10;;;;;;;1.90;1.80;;;22.90;1.00;;;;;;2607913;54;20403;-69
2024/02/29 01:41:35;;;;;;;1.50;1.40;;;22.90;1.00;;;;;;2607896;39;21129;-69
2024/02/29 01:44:01;;;;;;;1.20;1.20;;;22.90;1.00;;;;;;2607860;54;21629;-69
2024/02/29 01:46:27;;;;;;;1.00;1.00;;;22.90;1.00;;;;;;2607562;47;20691;-69
2024/02/29 01:48:55;;;;;;;1.00;1.00;;;22.90;1.00;;;;;;2607703;54;20151;-68
2024/02/29 01:51:22;;;;;;;2.23;2.03;;;22.80;1.00;;;;;;2607797;39;22428;-69
2024/02/29 01:53:48;;;;;;;1.30;1.20;;;22.80;1.00;;;;;;2608187;54;20422;-69
2024/02/29 01:56:14;;;;;;;1.10;1.10;;;22.80;1.00;;;;;;2607515;47;20442;-69
2024/02/29 01:58:41;;;;;;;1.10;1.10;;;22.80;1.00;;;;;;2608704;39;23023;-65
2024/02/29 02:01:07;;;;;;;1.20;1.20;;;22.80;1.00;;;;;;2606911;54;20408;-66
2024/02/29 02:03:33;;;;;;;1.10;1.10;;;22.80;1.00;;;;;;2608006;39;21136;-66
2024/02/29 02:05:59;;;;;;;1.10;1.10;;;22.80;1.00;;;;;;2607718;54;20431;-65
2024/02/29 02:08:29;;;;;;;1.20;1.20;;;22.70;1.00;;;;;;2607309;54;20427;-66
2024/02/29 02:10:55;;;;;;;1.50;1.40;;;22.80;1.00;;;;;;2607784;54;20169;-64
2024/02/29 02:13:20;;;;;;;2.27;2.17;;;22.70;1.00;;;;;;2608001;54;21009;-65
2024/02/29 02:15:46;;;;;;;1.10;1.10;;;22.80;1.00;;;;;;2608004;54;20176;-65
2024/02/29 02:18:12;;;;;;;1.13;1.13;;;22.70;1.00;;;;;;2608454;54;20151;-65
2024/02/29 02:20:38;;;;;;;1.00;1.00;;;22.70;1.00;;;;;;2608698;54;20189;-66
2024/02/29 02:23:03;;;;;;;1.10;1.10;;;22.70;1.00;;;;;;2608358;54;20819;-66
2024/02/29 02:25:29;;;;;;;1.40;1.30;;;22.70;1.00;;;;;;2608415;54;20278;-66
2024/02/29 02:27:55;;;;;;;1.30;1.30;;;22.70;1.00;;;;;;2607862;54;20162;-67
2024/02/29 02:30:21;;;;;;;1.10;1.10;;;22.70;1.00;;;;;;2610029;54;20630;-67
2024/02/29 02:32:46;;;;;;;1.13;1.13;;;22.70;1.00;;;;;;2609468;54;20655;-67
2024/02/29 02:35:12;;;;;;;1.00;1.00;;;22.70;1.00;;;;;;2608499;54;20404;-67
2024/02/29 02:37:39;;;;;;;1.07;1.07;;;22.60;1.00;;;;;;2608218;54;20166;-68
2024/02/29 02:40:06;;;;;;;1.10;1.10;;;22.60;1.00;;;;;;2607993;54;20152;-66
2024/02/29 02:42:32;;;;;;;1.40;1.30;;;22.60;1.00;;;;;;2608106;47;20414;-67
2024/02/29 02:44:57;;;;;;;1.10;1.10;;;22.60;1.00;;;;;;2608956;54;20406;-67
2024/02/29 02:47:23;;;;;;;1.43;1.33;;;22.60;1.00;;;;;;2608317;54;20417;-67
2024/02/29 02:49:49;;;;;;;1.10;1.10;;;22.60;1.00;;;;;;2608516;39;20575;-67
2024/02/29 02:52:15;;;;;;;1.50;1.40;;;22.60;1.00;;;;;;2607521;54;20144;-67
2024/02/29 02:54:40;;;;;;;1.30;1.30;;;22.60;1.00;;;;;;2608673;54;20254;-68
2024/02/29 02:57:08;;;;;;;1.10;1.10;;;22.60;1.00;;;;;;2609794;54;20719;-67
2024/02/29 02:59:34;;;;;;;1.00;1.00;;;22.60;1.00;;;;;;2608488;54;20409;-67
2024/02/29 03:02:00;;;;;;;1.13;1.13;;;22.60;1.00;;;;;;2607891;54;20425;-68
2024/02/29 03:04:26;;;;;;;1.10;1.10;;;22.60;1.00;;;;;;2608533;54;20535;-66
2024/02/29 03:06:51;;;;;;;1.20;1.20;;;22.50;1.00;;;;;;2607404;54;20163;-67
2024/02/29 03:09:17;;;;;;;1.10;1.10;;;22.50;1.00;;;;;;2608926;54;20229;-81
2024/02/29 03:11:43;;;;;;;1.00;1.00;;;22.50;1.00;;;;;;2610936;54;20165;-82
2024/02/29 03:14:09;;;;;;;1.00;1.00;;;22.50;1.00;;;;;;2609876;54;20154;-81
2024/02/29 03:16:37;;;;;;;1.10;1.10;;;22.50;1.00;;;;;;2610129;54;20988;-81
2024/02/29 03:19:05;;;;;;;2.20;2.00;;;22.50;1.00;;;;;;2609280;54;20139;-81
2024/02/29 03:21:32;;;;;;;1.20;1.20;;;22.50;1.00;;;;;;2609921;39;21122;-81
2024/02/29 03:23:58;;;;;;;1.23;1.20;;;22.50;1.00;;;;;;2610516;39;20847;-81
2024/02/29 03:26:24;;;;;;;0.97;0.97;;;22.50;1.00;;;;;;2609392;54;20427;-81
2024/02/29 03:28:50;;;;;;;3.83;2.70;;;22.50;1.00;;;;;;2610338;54;20395;-82
2024/02/29 03:31:16;;;;;;;1.10;1.10;;;22.50;1.00;;;;;;2609282;54;20732;-82
2024/02/29 03:33:42;;;;;;;1.73;1.63;;;22.50;1.00;;;;;;2610061;54;20698;-80
2024/02/29 03:36:08;;;;;;;1.00;1.00;;;22.50;1.00;;;;;;2609435;54;20198;-81
2024/02/29 03:38:35;;;;;;;1.10;1.10;;;22.40;1.00;;;;;;2609029;54;20410;-64
2024/02/29 03:41:01;;;;;;;1.13;1.13;;;22.40;1.00;;;;;;2607237;54;20389;-64
2024/02/29 03:43:27;;;;;;;1.10;1.10;;;22.50;1.00;;;;;;2608559;54;20434;-64
2024/02/29 03:45:53;;;;;;;1.00;1.00;;;22.40;1.00;;;;;;2608362;39;20897;-64
2024/02/29 03:48:19;;;;;;;0.90;0.90;;;22.40;1.00;;;;;;2607614;54;20403;-65
2024/02/29 03:50:44;;;;;;;0.90;0.90;;;22.40;1.00;;;;;;2607937;54;20147;-64
2024/02/29 03:53:10;;;;;;;1.10;1.10;;;22.40;1.00;;;;;;2608644;39;20555;-64
2024/02/29 03:55:36;;;;;;;1.40;1.30;;;22.40;1.00;;;;;;2607269;54;21433;-64
2024/02/29 03:58:03;;;;;;;1.30;1.20;;;22.40;1.00;;;;;;2608374;54;20392;-64
2024/02/29 04:00:28;;;;;;;1.43;1.33;;;22.40;1.00;;;;;;2607520;54;20402;-64
2024/02/29 04:02:54;;;;;;;1.50;1.40;;;22.40;1.00;;;;;;2607690;47;20415;-64
2024/02/29 04:05:24;;;;;;;1.20;1.20;;;22.40;1.00;;;;;;2608414;54;20150;-64
2024/02/29 04:07:50;;;;;;;2.60;2.33;;;22.40;1.00;;;;;;2607151;54;20228;-64
2024/02/29 04:10:16;;;;;;;1.10;1.10;;;22.40;1.00;;;;;;2606706;54;20438;-64
2024/02/29 04:12:42;;;;;;;1.30;1.30;;;22.40;1.00;;;;;;2610032;54;20414;-63
2024/02/29 04:15:08;;;;;;;1.37;1.30;;;22.40;1.00;;;;;;2607371;54;20160;-65
2024/02/29 04:17:34;;;;;;;1.33;1.30;;;22.40;1.00;;;;;;2606865;47;20174;-64
2024/02/29 04:20:00;;;;;;;1.40;1.30;;;22.40;1.00;;;;;;2607427;54;20426;-64
2024/02/29 04:22:25;;;;;;;1.10;1.10;;;22.30;1.00;;;;;;2607665;54;20140;-66
2024/02/29 04:24:51;;;;;;;1.43;1.33;;;22.30;1.00;;;;;;2607652;54;20158;-63
2024/02/29 04:27:17;;;;;;;1.23;1.20;;;22.40;1.00;;;;;;2608531;54;20176;-64
2024/02/29 04:29:46;;;;;;;1.97;1.87;;;22.30;1.00;;;;;;2606693;54;20201;-65
2024/02/29 04:32:12;;;;;;;1.10;1.10;;;22.30;1.00;;;;;;2607940;47;20678;-65
2024/02/29 04:34:37;;;;;;;1.10;1.10;;;22.30;1.00;;;;;;2607450;54;20427;-65
2024/02/29 04:37:03;;;;;;;1.00;1.00;;;22.30;1.00;;;;;;2607889;54;20204;-63
2024/02/29 04:39:29;;;;;;;1.10;1.10;;;22.30;1.00;;;;;;2607707;54;20183;-64
2024/02/29 04:41:54;;;;;;;1.40;1.30;;;22.30;1.00;;;;;;2606808;54;20152;-65
2024/02/29 04:44:20;;;;;;;1.97;1.87;;;22.30;1.00;;;;;;2607318;54;20279;-64
2024/02/29 04:46:46;;;;;;;1.00;1.00;;;22.30;1.00;;;;;;2607170;54;20151;-64
2024/02/29 04:49:11;;;;;;;1.10;1.10;;;22.20;1.00;;;;;;2607779;54;20162;-67
2024/02/29 04:51:37;;;;;;;1.20;1.20;;;22.30;1.00;;;;;;2608140;54;20163;-68
2024/02/29 04:54:03;;;;;;;1.20;1.20;;;22.20;1.00;;;;;;2607542;54;20289;-68
2024/02/29 04:56:28;;;;;;;1.07;1.07;;;22.20;1.00;;;;;;2607217;54;20144;-67
2024/02/29 04:58:54;;;;;;;1.17;1.17;;;22.30;1.00;;;;;;2608215;54;20675;-68
2024/02/29 05:01:20;;;;;;;1.30;1.20;;;22.20;1.00;;;;;;2606556;47;20800;-67
2024/02/29 05:03:45;;;;;;;1.20;1.20;;;22.20;1.00;;;;;;2608265;54;20230;-66
2024/02/29 05:06:16;;;;;;;1.10;1.10;;;22.20;1.00;;;;;;2607612;47;20834;-65
2024/02/29 05:08:42;;;;;;;1.03;1.03;;;22.30;1.00;;;;;;2607182;54;20161;-67
2024/02/29 05:11:11;;;;;;;1.00;1.00;;;22.30;1.00;;;;;;2607021;47;20427;-67
2024/02/29 05:13:37;;;;;;;2.27;2.17;;;22.30;1.00;;;;;;2606268;54;20520;-67
2024/02/29 05:16:07;;;;;;;1.20;1.10;;;22.30;1.00;;;;;;2607904;54;20429;-68
2024/02/29 05:18:33;;;;;;;3.83;3.67;;;22.20;1.00;;;;;;2610150;54;20178;-68
2024/02/29 05:20:58;;;;;;;1.10;1.10;;;22.20;1.00;;;;;;2608625;54;20442;-67
2024/02/29 05:23:24;;;;;;;1.00;1.00;;;22.20;1.00;;;;;;2610229;47;20433;-67
2024/02/29 05:25:50;;;;;;;1.20;1.20;;;22.20;1.00;;;;;;2610003;47;20273;-66
2024/02/29 05:28:16;;;;;;;0.90;0.90;;;22.20;1.00;;;;;;2610681;47;20171;-80
2024/02/29 05:30:42;;;;;;;1.10;1.10;;;22.20;1.00;;;;;;2612701;54;20166;-83
2024/02/29 05:33:08;;;;;;;1.10;1.10;;;22.20;1.00;;;;;;2611880;39;20587;-82
2024/02/29 05:35:34;;;;;;;1.20;1.20;;;22.20;1.00;;;;;;2611909;54;20439;-82
2024/02/29 05:38:00;;;;;;;0.90;0.90;;;22.30;1.00;;;;;;2609542;47;20172;-82
2024/02/29 05:40:29;;;;;;;1.17;1.17;;;22.30;1.00;;;;;;2608403;54;20400;-82
2024/02/29 05:42:55;;;;;;;1.10;1.10;;;22.30;1.00;;;;;;2609246;54;20295;-81
2024/02/29 05:45:20;;;;;;;1.00;1.00;;;22.20;1.00;;;;;;2606992;47;20453;-82
2024/02/29 05:47:47;;;;;;;1.07;1.07;;;22.30;1.00;;;;;;2609139;47;20423;-82
2024/02/29 05:50:13;;;;;;;1.10;1.10;;;22.30;1.00;;;;;;2609801;54;20149;-82
2024/02/29 05:52:40;;;;;;;1.23;1.20;;;22.20;1.00;;;;;;2608624;54;20418;-82
2024/02/29 05:55:06;;;;;;;1.20;1.20;;;22.20;1.00;;;;;;2610121;54;20152;-82
2024/02/29 05:57:32;;;;;;;1.10;1.10;;;22.20;1.00;;;;;;2609735;54;20428;-82
2024/02/29 06:00:00;;;;;;;1.10;1.10;;;22.30;1.00;;;;;;2608625;54;20177;-67
2024/02/29 06:02:30;;;;;;;1.10;1.10;;;22.20;1.00;;;;;;2608099;54;20159;-67
2024/02/29 06:04:58;;;;;;;1.07;1.07;;;22.20;1.00;;;;;;2607873;54;20458;-67
2024/02/29 06:07:24;;;;;;;1.00;1.00;;;22.20;1.00;;;;;;2609606;39;20769;-67
2024/02/29 06:09:50;;;;;;;1.00;1.00;;;22.20;1.00;;;;;;2609486;54;20411;-66
2024/02/29 06:12:16;;;;;;;0.93;0.93;;;22.30;1.00;;;;;;2608951;54;20431;-67
2024/02/29 06:14:41;;;;;;;1.03;1.03;;;22.30;1.00;;;;;;2609577;47;21052;-67
2024/02/29 06:17:07;;;;;;;1.10;1.10;;;22.20;1.00;;;;;;2608304;47;20165;-67
2024/02/29 06:19:39;;;;;;;1.07;1.07;;;22.20;1.00;;;;;;2609020;54;20254;-67
2024/02/29 06:22:06;;;;;;;1.50;1.40;;;22.20;1.00;;;;;;2609220;54;20447;-67
2024/02/29 06:24:32;;;;;;;1.20;1.20;;;22.30;1.00;;;;;;2608769;54;20419;-66
2024/02/29 06:26:58;;;;;;;1.70;1.60;;;22.30;1.00;;;;;;2608886;54;20403;-68
2024/02/29 06:29:23;;;;;;;2.73;2.63;;;22.30;1.00;;;;;;2610514;54;20269;-67
2024/02/29 06:31:49;;;;;;;1.90;1.80;;;22.40;1.00;;;;;;2611691;54;20166;-67
2024/02/29 06:34:16;;;;;;;1.87;1.77;;;22.40;1.00;;;;;;2611828;54;20177;-67
2024/02/29 06:36:42;;;;;;;1.83;1.73;;;22.50;1.00;;;;;;2612352;39;20571;-68
2024/02/29 06:39:08;;;;;;;3.70;3.60;;;22.50;1.00;;;;;;2611440;54;20419;-69
2024/02/29 06:41:35;;;;;;;3.80;3.70;;;22.70;1.00;;;;;;2611581;54;20422;-68
2024/02/29 06:44:02;;;;;;;3.50;3.40;;;23.20;1.00;;;;;;2611556;47;20204;-68
2024/02/29 06:46:28;;;;;;;3.70;3.60;;;23.60;1.00;;;;;;2611018;39;20837;-69
2024/02/29 06:48:54;;;;;;;1.10;1.10;;;23.80;1.00;;;;;;2610959;54;20409;-67
2024/02/29 06:51:19;;;;;;;1.20;1.20;;;23.70;1.00;;;;;;2611732;54;20170;-67
2024/02/29 06:53:45;;;;;;;1.20;1.20;;;23.30;1.00;;;;;;2610962;47;20162;-67
2024/02/29 06:56:11;;;;;;;1.10;1.10;;;23.10;1.00;;;;;;2611533;54;20146;-67
2024/02/29 06:58:36;;;;;;;1.10;1.10;;;22.90;1.00;;;;;;2609523;54;20171;-68
2024/02/29 07:01:04;;;;;;;1.50;1.40;;;22.90;1.00;;;;;;2610078;54;20155;-66
2024/02/29 07:03:29;;;;;;;1.00;1.00;;;22.80;1.00;;;;;;2610449;54;20655;-67
2024/02/29 07:05:55;;;;;;;1.17;1.17;;;22.70;1.00;;;;;;2610869;54;20408;-67
2024/02/29 07:08:21;;;;;;;1.97;1.87;;;22.70;1.00;;;;;;2612626;39;21120;-75
2024/02/29 07:10:48;;;;;;;1.00;1.00;;;22.60;1.00;;;;;;2611152;54;20266;-75
2024/02/29 07:13:13;;;;;;;1.30;1.30;;;22.60;1.00;;;;;;2610743;54;20165;-74
2024/02/29 07:15:39;;;;;;;2.27;2.17;;;22.60;1.00;;;;;;2610746;54;20490;-75
2024/02/29 07:18:06;;;;;;;1.20;1.20;;;22.60;1.00;;;;;;2610759;54;20258;-76
2024/02/29 07:20:32;;;;;;;1.20;1.20;;;22.60;1.00;;;;;;2611616;54;20170;-76
2024/02/29 07:23:00;;;;;;;1.40;1.33;;;22.60;1.00;;;;;;2610042;54;20450;-71
2024/02/29 07:25:27;;;;;;;1.97;1.87;;;22.80;1.00;;;;;;2611201;39;20544;-72
2024/02/29 07:27:54;;;;;;;2.00;1.90;;;23.10;1.00;;;;;;2612098;39;21190;-70
2024/02/29 07:30:20;;;;;;;2.40;2.30;;;23.30;1.00;;;;;;2610617;54;20390;-77
2024/02/29 07:32:46;;;;;;;1.70;1.60;;;23.50;1.00;;;;;;2611811;31;20899;-70
2024/02/29 07:35:17;;;;;;;1.47;1.37;;;23.60;1.00;;;;;;2608394;54;20403;-69
2024/02/29 07:37:46;;;;;;;1.70;1.60;;;23.70;1.00;;;;;;2610826;54;20181;-68
2024/02/29 07:40:12;;;;;;;1.10;1.10;;;23.70;1.00;;;;;;2611113;54;20433;-72
2024/02/29 07:42:41;;;;;;;1.07;1.07;;;23.60;1.00;;;;;;2610561;54;20401;-71
2024/02/29 07:45:08;;;;;;;1.10;1.10;;;23.30;1.00;;;;;;2610429;54;20399;-71
2024/02/29 07:47:34;;;;;;;1.00;1.00;;;23.10;1.00;;;;;;2610317;54;20403;-72
2024/02/29 07:50:00;;;;;;;1.00;1.00;;;23.00;1.00;;;;;;2610372;39;20839;-73
2024/02/29 07:52:25;;;;;;;0.90;0.90;;;22.90;1.00;;;;;;2609213;54;20417;-74
2024/02/29 07:54:51;;;;;;;1.10;1.10;;;22.80;1.00;;;;;;2609710;54;20164;-73
2024/02/29 07:57:17;;;;;;;0.87;0.87;;;22.80;1.00;;;;;;2605336;47;20166;-70
2024/02/29 07:59:44;;;;;;;0.90;0.90;;;22.80;1.00;;;;;;2606528;47;20184;-72
2024/02/29 08:02:09;;;;;;;0.80;0.80;;;22.80;1.00;;;;;;2606999;54;20432;-72
2024/02/29 08:04:39;;;;;;;0.90;0.90;;;22.80;1.00;;;;;;2610272;54;20512;-71
2024/02/29 08:07:06;;;;;;;0.80;0.80;;;22.80;1.00;;;;;;2610750;54;20184;-72
2024/02/29 08:09:35;;;;;;;1.10;1.10;;;22.80;1.00;;;;;;2609684;54;21301;-73
2024/02/29 08:12:01;;;;;;;0.90;0.90;;;22.80;1.00;;;;;;2610785;39;22347;-72
2024/02/29 08:14:28;;;;;;;1.20;1.20;;;22.80;1.00;;;;;;2609806;54;20407;-71
2024/02/29 08:16:54;;;;;;;1.07;1.07;;;22.90;1.00;;;;;;2610563;54;21086;-70
2024/02/29 08:19:19;;;;;;;1.80;1.70;;;22.90;1.00;;;;;;2610102;54;20409;-68
2024/02/29 08:21:45;;;;;;;0.70;0.70;;;23.00;1.00;;;;;;2610194;54;20186;-64
2024/02/29 08:24:11;;;;;;;0.80;0.80;;;22.60;1.00;;;;;;2610240;54;20145;-70
2024/02/29 08:26:37;;;;;;;1.90;1.80;;;21.90;1.00;;;;;;2609965;54;20725;-72
2024/02/29 08:29:03;;;;;;;4.00;3.80;;;22.50;1.00;;;;;;2607914;51;20162;-66
2024/02/29 08:31:28;;;;;;;2.60;2.50;;;23.10;1.00;;;;;;2610903;54;20522;-64
2024/02/29 08:33:54;;;;;;;3.10;3.00;;;23.20;1.00;;;;;;2610048;54;20158;-62
2024/02/29 08:36:20;;;;;;;2.80;2.70;;;23.20;1.00;;;;;;2610052;54;20336;-63
2024/02/29 08:38:46;;;;;;;2.67;2.57;;;23.10;1.00;;;;;;2610365;54;20162;-63
2024/02/29 08:41:12;;;;;;;2.80;2.70;;;23.10;1.00;;;;;;2609742;48;20428;-63
2024/02/29 08:43:42;;;;;;;2.70;2.60;;;23.10;1.00;;;;;;2610418;54;20150;-62
2024/02/29 08:46:09;;;;;;;2.90;2.80;;;23.00;1.00;;;;;;2611012;54;20152;-62
2024/02/29 08:48:36;;;;;;;2.73;2.63;;;23.10;1.00;;;;;;2609675;54;20518;-62
2024/02/29 08:51:02;;;;;;;3.07;2.97;;;23.10;1.00;;;;;;2610488;54;20418;-62
2024/02/29 08:53:28;;;;;;;3.07;2.97;;;23.20;1.00;;;;;;2610617;54;20391;-61
2024/02/29 08:55:53;;;;;;;3.00;2.90;;;23.20;1.00;;;;;;2610969;54;20433;-61
2024/02/29 08:58:19;;;;;;;2.77;2.67;;;23.30;1.00;;;;;;2610626;54;20181;-65
2024/02/29 09:00:45;;;;;;;3.20;3.10;;;23.40;1.00;;;;;;2609591;54;20161;-70
2024/02/29 09:03:13;;;;;;;6.10;5.90;;;23.50;1.00;;;;;;2610650;54;20514;-72
2024/02/29 09:05:40;;;;;;;6.60;6.40;;;23.80;1.00;;;;;;2610734;54;20156;-74
2024/02/29 09:08:05;;;;;;;5.40;5.20;;;24.00;1.00;;;;;;2610632;54;20389;-75
2024/02/29 09:10:31;;;;;;;5.60;5.40;;;23.90;1.00;;;;;;2611163;54;20931;-80
2024/02/29 09:12:57;;;;;;;5.00;4.80;;;23.70;1.00;;;;;;2610082;54;20188;-74
2024/02/29 09:15:23;;;;;;;5.40;5.20;;;23.80;1.00;;;;;;2611899;31;20641;-73
2024/02/29 09:17:49;;;;;;;5.30;5.10;;;23.70;1.00;;;;;;2612024;47;20170;-73
2024/02/29 09:20:14;;;;;;;2.00;1.90;;;23.50;1.00;;;;;;2610841;54;20145;-71
2024/02/29 09:22:40;;;;;;;2.00;1.90;;;23.40;1.00;;;;;;2609267;54;20185;-71
2024/02/29 09:25:06;;;;;;;3.33;3.13;;;23.30;1.00;;;;;;2610660;47;20265;-71
2024/02/29 09:27:32;;;;;;;2.10;2.00;;;23.00;1.00;;;;;;2610978;54;20757;-70
2024/02/29 09:29:58;;;;;;;2.10;2.00;;;22.90;1.00;;;;;;2610607;47;20426;-66
2024/02/29 09:32:23;;;;;;;2.10;2.00;;;22.80;1.00;;;;;;2611273;54;20157;-66
2024/02/29 09:34:49;;;;;;;1.87;1.77;;;22.80;1.00;;;;;;2611796;54;20153;-66
2024/02/29 09:37:15;;;;;;;2.10;2.00;;;22.80;1.00;;;;;;2611722;54;20198;-66
2024/02/29 09:39:40;;;;;;;1.80;1.70;;;22.80;1.00;;;;;;2612470;54;20185;-66
2024/02/29 09:42:09;;;;;;;2.73;2.63;;;23.00;1.00;;;;;;2611844;54;20143;-66
2024/02/29 09:44:35;;;;;;;2.03;1.93;;;23.00;1.00;;;;;;2611817;39;20262;-66
2024/02/29 09:47:02;;;;;;;1.93;1.83;;;22.90;1.00;;;;;;2611260;39;20648;-66
2024/02/29 09:49:28;;;;;;;1.77;1.67;;;22.80;1.00;;;;;;2611578;54;20391;-66
2024/02/29 09:51:54;;;;;;;1.60;1.50;;;22.80;1.00;;;;;;2612042;54;20424;-65
2024/02/29 09:54:21;;;;;;;1.50;1.40;;;22.80;1.00;;;;;;2611372;54;20397;-65
2024/02/29 09:56:47;;;;;;;1.57;1.47;;;22.70;1.00;;;;;;2611542;47;20170;-66
2024/02/29 09:59:15;;;;;;;1.50;1.40;;;22.70;1.00;;;;;;2612260;54;20410;-66
2024/02/29 10:01:44;;;;;;;1.20;1.20;;;22.70;1.00;;;;;;2611924;39;20668;-66
2024/02/29 10:04:10;;;;;;;1.80;1.70;;;22.70;1.00;;;;;;2612027;54;20403;-66
2024/02/29 10:06:35;;;;;;;1.40;1.30;;;22.80;1.00;;;;;;2610957;47;20414;-67
2024/02/29 10:09:01;;;;;;;1.37;1.30;;;22.70;1.00;;;;;;2611866;39;20339;-70
2024/02/29 10:11:28;;;;;;;1.50;1.40;;;22.60;1.00;;;;;;2611495;54;20172;-72
2024/02/29 10:13:54;;;;;;;1.87;1.77;;;22.60;1.00;;;;;;2610839;54;20191;-70
2024/02/29 10:16:19;;;;;;;1.80;1.70;;;22.50;1.00;;;;;;2612706;39;20839;-70
2024/02/29 10:18:45;;;;;;;1.60;1.50;;;22.40;1.00;;;;;;2611824;54;20395;-70
2024/02/29 10:21:13;;;;;;;1.30;1.30;;;22.40;1.00;;;;;;2610836;54;20169;-71
2024/02/29 10:23:39;;;;;;;1.10;1.10;;;22.40;1.00;;;;;;2611311;54;20729;-71
2024/02/29 10:26:05;;;;;;;1.30;1.30;;;22.40;1.00;;;;;;2611545;54;20431;-71
2024/02/29 10:28:31;;;;;;;1.60;1.50;;;22.40;1.00;;;;;;2612135;54;20433;-71
2024/02/29 10:30:58;;;;;;;1.40;1.30;;;22.40;1.00;;;;;;2611753;54;20404;-71
2024/02/29 10:33:37;;;;;;;1.37;1.30;;;22.40;1.00;;;;;;2611607;39;20619;-70
2024/02/29 10:36:10;;;;;;;1.37;1.30;;;22.30;1.00;;;;;;2612517;54;20447;-71
2024/02/29 10:38:37;;;;;;;1.30;1.20;;;22.40;1.00;;;;;;2613094;54;20823;-68
2024/02/29 10:41:03;;;;;;;1.40;1.30;;;22.30;1.00;;;;;;2611730;54;20402;-69
2024/02/29 10:43:31;;;;;;;1.60;1.50;;;22.30;1.00;;;;;;2611208;39;20866;-69
2024/02/29 10:45:59;;;;;;;1.60;1.50;;;22.30;1.00;;;;;;2612245;54;20403;-68
2024/02/29 10:48:40;;;;;;;1.40;1.30;;;22.30;1.00;;;;;;2613070;54;20469;-68
2024/02/29 10:51:15;;;;;;;1.50;1.40;;;22.30;1.00;;;;;;2612214;54;20415;-69
2024/02/29 10:53:56;;;;;;;1.10;1.10;;;22.20;1.00;;;;;;2612117;54;20405;-68
2024/02/29 10:56:23;;;;;;;1.70;1.60;;;22.20;1.00;;;;;;2612060;54;20400;-70
2024/02/29 10:59:02;;;;;;;1.53;1.43;;;22.20;1.00;;;;;;2612829;54;21196;-69
2024/02/29 11:01:32;;;;;;;1.50;1.40;;;22.20;1.00;;;;;;2612466;39;20934;-68
2024/02/29 11:03:58;;;;;;;1.50;1.40;;;22.10;1.00;;;;;;2612704;39;20833;-68
2024/02/29 11:06:25;;;;;;;1.60;1.50;;;22.10;1.00;;;;;;2612539;54;20400;-69
2024/02/29 11:08:51;;;;;;;1.60;1.50;;;22.10;1.00;;;;;;2612173;47;20529;-68
2024/02/29 11:11:21;;;;;;;1.50;1.40;;;22.00;1.00;;;;;;2612495;54;20404;-67
2024/02/29 11:13:46;;;;;;;1.17;1.17;;;22.00;1.00;;;;;;2611403;50;20427;-69
2024/02/29 11:16:14;;;;;;;2.17;2.07;;;22.00;1.00;;;;;;2612600;54;20420;-69
2024/02/29 11:18:41;;;;;;;1.40;1.30;;;22.00;1.00;;;;;;2612387;54;20153;-63
2024/02/29 11:21:07;;;;;;;1.10;1.10;;;22.00;1.00;;;;;;2612023;54;20415;-63
2024/02/29 11:23:37;;;;;;;1.23;1.23;;;22.00;1.00;;;;;;2610911;54;20461;-61
2024/02/29 11:26:10;;;;;;;1.50;1.40;;;21.90;1.00;;;;;;2611232;54;20167;-63
2024/02/29 11:28:41;;;;;;;2.30;2.20;;;22.00;1.00;;;;;;2610622;39;20921;-64
2024/02/29 11:31:15;;;;;;;1.83;1.73;;;22.30;1.00;;;;;;2610639;54;20505;-63
2024/02/29 11:33:42;;;;;;;2.50;2.40;;;22.70;1.00;;;;;;2610105;54;20391;-62
2024/02/29 11:36:10;;;;;;;5.30;5.10;;;22.90;1.00;;;;;;2609191;54;20462;-64
2024/02/29 11:38:35;;;;;;;5.10;4.90;;;22.80;1.00;;;;;;2610346;39;21724;-64
2024/02/29 11:41:01;;;;;;;5.30;5.10;;;22.80;1.00;;;;;;2610341;54;20403;-64
2024/02/29 11:43:27;;;;;;;5.60;5.40;;;22.80;1.00;;;;;;2611118;47;20164;-64
2024/02/29 11:45:52;;;;;;;5.80;5.60;;;22.80;1.00;;;;;;2611670;54;20762;-67
2024/02/29 11:48:18;;;;;;;5.60;5.40;;;23.00;1.00;;;;;;2611588;54;20690;-73
2024/02/29 11:50:43;;;;;;;5.80;5.60;;;23.20;1.00;;;;;;2612695;54;20152;-72
2024/02/29 11:53:09;;;;;;;5.50;5.30;;;23.30;1.00;;;;;;2612012;47;20163;-72
2024/02/29 11:55:35;;;;;;;5.20;5.00;;;23.40;1.00;;;;;;2611531;54;20694;-71
2024/02/29 11:58:01;;;;;;;5.67;5.47;;;23.40;1.00;;;;;;2611690;54;20689;-73
2024/02/29 12:00:28;;;;;;;1.10;1.10;;;23.50;1.00;;;;;;2611295;54;20166;-72
2024/02/29 12:02:54;;;;;;;1.00;1.00;;;23.30;1.00;;;;;;2612396;54;20399;-73
2024/02/29 12:05:19;;;;;;;1.13;1.13;;;23.10;1.00;;;;;;2612258;54;20402;-72
2024/02/29 12:07:46;;;;;;;1.10;1.10;;;22.90;1.00;;;;;;2612215;54;20412;-72
2024/02/29 12:10:13;;;;;;;1.30;1.30;;;22.80;1.00;;;;;;2611943;54;20151;-73
2024/02/29 12:12:39;;;;;;;1.20;1.20;;;22.70;1.00;;;;;;2612279;54;21105;-72
2024/02/29 12:15:07;;;;;;;1.20;1.20;;;22.70;1.00;;;;;;2612429;39;20782;-73
2024/02/29 12:17:33;;;;;;;1.13;1.13;;;22.70;1.00;;;;;;2612096;47;20418;-73
2024/02/29 12:20:00;;;;;;;4.30;4.20;;;22.70;1.00;;;;;;2611476;54;20418;-77
2024/02/29 12:22:25;;;;;;;2.00;1.90;;;22.80;1.00;;;;;;2611875;39;20825;-73
2024/02/29 12:24:51;;;;;;;1.50;1.40;;;22.90;1.00;;;;;;2612015;54;20506;-75
2024/02/29 12:27:17;;;;;;;2.00;1.90;;;22.90;1.00;;;;;;2612409;31;20626;-74
2024/02/29 12:29:43;;;;;;;1.60;1.50;;;23.00;1.00;;;;;;2611423;54;20176;-74
2024/02/29 12:32:09;;;;;;;1.20;1.20;;;23.00;1.00;;;;;;2612133;54;20177;-74
2024/02/29 12:34:37;;;;;;;2.50;2.40;;;23.10;1.00;;;;;;2612611;39;20815;-76
2024/02/29 12:37:02;;;;;;;1.30;1.30;;;23.10;1.00;;;;;;2612107;54;20205;-75
2024/02/29 12:39:28;;;;;;;5.80;5.60;;;23.30;1.00;;;;;;2611859;54;20510;-70
2024/02/29 12:41:54;;;;;;;5.80;5.60;;;23.30;1.00;;;;;;2613223;54;20164;-71
2024/02/29 12:44:21;;;;;;;4.40;4.30;;;23.50;1.00;;;;;;2611607;54;20171;-74
2024/02/29 12:46:55;;;;;;;11.67;11.17;;;23.50;1.00;;;;;;2611760;54;20176;-73
2024/02/29 12:49:22;;;;;;;13.70;13.30;;;23.60;1.00;;;;;;2610932;39;20825;-71
2024/02/29 12:51:48;;;;;;;5.80;5.60;;;23.80;1.00;;;;;;2611173;54;20429;-69
2024/02/29 12:54:14;;;;;;;6.23;6.03;;;23.80;1.00;;;;;;2611235;54;20527;-67